Time;durP1;ratioP1;P1;durP2;ratioP2;P2;SDS_P1;SDS_P2;PMS_P1;PMS_P2;Temp;Humidity;BMP_temperature;BMP_pressure;BME280_temperature;BME280_humidity;BME280_pressure;Samples;Min_cycle;Max_cycle;Signal;HPM_P1;HPM_P2
2024/01/19 00:00:32;;;;;;;;;;;8.40;91.70;;;;;;5005511;28;86962;-55
2024/01/19 00:02:57;;;;;;;;;;;8.40;91.40;;;;;;5002910;28;87072;-55
2024/01/19 00:05:23;;;;;;;;;;;8.40;91.40;;;;;;5005604;28;87421;-53
2024/01/19 00:07:49;;;;;;;;;;;8.40;91.40;;;;;;5005858;28;87016;-55
2024/01/19 00:10:14;;;;;;;;;;;8.40;91.40;;;;;;5005681;28;86908;-53
2024/01/19 00:12:40;;;;;;;;;;;8.40;91.40;;;;;;5008463;28;86707;-55
2024/01/19 00:15:09;;;;;;;;;;;8.40;91.50;;;;;;5009265;28;87046;-53
2024/01/19 00:17:35;;;;;;;;;;;8.40;91.50;;;;;;5008080;28;86936;-55
2024/01/19 00:20:01;;;;;;;;;;;8.40;91.50;;;;;;5009861;28;88500;-56
2024/01/19 00:22:26;;;;;;;;;;;8.40;91.50;;;;;;5009040;28;87980;-54
2024/01/19 00:24:52;;;;;;;;;;;8.40;91.50;;;;;;5008587;28;88535;-55
2024/01/19 00:27:17;;;;;;;;;;;8.40;91.50;;;;;;5008806;28;87183;-55
2024/01/19 00:29:43;;;;;;;;;;;8.40;91.50;;;;;;5008161;28;87475;-55
2024/01/19 00:32:08;;;;;;;;;;;8.40;91.50;;;;;;5008653;28;87368;-55
2024/01/19 00:34:34;;;;;;;;;;;8.40;91.50;;;;;;4997858;28;87671;-54
2024/01/19 00:36:59;;;;;;;;;;;8.40;91.50;;;;;;5005671;28;87900;-54
2024/01/19 00:39:25;;;;;;;;;;;8.40;91.50;;;;;;5007971;28;87911;-54
2024/01/19 00:41:50;;;;;;;;;;;8.40;91.50;;;;;;5011371;28;86989;-52
2024/01/19 00:44:16;;;;;;;;;;;8.40;91.50;;;;;;5007003;28;88218;-53
2024/01/19 00:46:42;;;;;;;;;;;8.40;91.50;;;;;;5008845;28;86975;-53
2024/01/19 00:49:07;;;;;;;;;;;8.40;91.50;;;;;;5008274;28;86885;-56
2024/01/19 00:51:33;;;;;;;;;;;8.30;91.50;;;;;;5007297;28;87496;-54
2024/01/19 00:53:58;;;;;;;;;;;8.40;91.50;;;;;;5007940;28;87842;-54
2024/01/19 00:56:24;;;;;;;;;;;8.40;91.50;;;;;;5007228;28;86958;-56
2024/01/19 00:58:49;;;;;;;;;;;8.40;91.50;;;;;;5008108;28;87426;-54
2024/01/19 01:01:15;;;;;;;;;;;8.40;91.50;;;;;;5009037;28;86379;-54
2024/01/19 01:03:41;;;;;;;;;;;8.40;91.50;;;;;;5008172;28;88527;-55
2024/01/19 01:06:06;;;;;;;;;;;8.40;91.50;;;;;;5007502;28;86981;-55
2024/01/19 01:08:35;;;;;;;;;;;8.30;91.50;;;;;;5002815;28;88314;-54
2024/01/19 01:11:00;;;;;;;;;;;8.40;91.50;;;;;;5007966;28;87694;-54
2024/01/19 01:13:26;;;;;;;;;;;8.30;91.40;;;;;;5008353;28;87089;-53
2024/01/19 01:15:51;;;;;;;;;;;8.40;91.40;;;;;;5006753;28;87034;-53
2024/01/19 01:18:18;;;;;;;;;;;8.30;91.40;;;;;;5006148;28;86973;-53
2024/01/19 01:20:44;;;;;;;;;;;8.40;91.40;;;;;;5007380;28;87145;-53
2024/01/19 01:23:09;;;;;;;;;;;8.40;91.40;;;;;;5009108;28;87365;-54
2024/01/19 01:25:35;;;;;;;;;;;8.40;91.40;;;;;;5008680;28;86219;-55
2024/01/19 01:28:01;;;;;;;;;;;8.40;91.40;;;;;;5007567;28;87036;-53
2024/01/19 01:30:26;;;;;;;;;;;8.40;91.40;;;;;;5007751;28;87349;-54
2024/01/19 01:32:52;;;;;;;;;;;8.40;91.40;;;;;;5007194;28;88315;-54
2024/01/19 01:35:17;;;;;;;;;;;8.30;91.30;;;;;;5007100;28;87611;-51
2024/01/19 01:37:43;;;;;;;;;;;8.30;91.30;;;;;;5006706;28;87628;-55
2024/01/19 01:40:11;;;;;;;;;;;8.30;91.30;;;;;;5007980;28;87009;-52
2024/01/19 01:42:37;;;;;;;;;;;8.40;91.40;;;;;;5006615;28;87909;-56
2024/01/19 01:45:04;;;;;;;;;;;8.40;91.40;;;;;;5010343;28;87540;-54
2024/01/19 01:47:29;;;;;;;;;;;8.30;91.30;;;;;;5007463;28;86836;-53
2024/01/19 01:49:55;;;;;;;;;;;8.30;91.40;;;;;;5000976;28;86282;-53
2024/01/19 01:52:21;;;;;;;;;;;8.30;91.30;;;;;;5007637;28;87214;-54
2024/01/19 01:54:46;;;;;;;;;;;8.30;91.30;;;;;;5004914;28;86903;-54
2024/01/19 01:57:13;;;;;;;;;;;8.30;91.30;;;;;;5005777;28;88563;-52
2024/01/19 01:59:38;;;;;;;;;;;8.30;91.40;;;;;;5007561;28;86891;-56
2024/01/19 02:02:04;;;;;;;;;;;8.30;91.40;;;;;;5006924;28;86925;-55
2024/01/19 02:04:29;;;;;;;;;;;8.40;91.40;;;;;;5006058;28;88606;-55
2024/01/19 02:06:55;;;;;;;;;;;8.30;91.30;;;;;;5007832;28;86993;-53
2024/01/19 02:09:20;;;;;;;;;;;8.30;91.40;;;;;;5005947;28;87700;-52
2024/01/19 02:11:46;;;;;;;;;;;8.30;91.40;;;;;;5007563;28;87008;-53
2024/01/19 02:14:12;;;;;;;;;;;8.30;91.30;;;;;;5007786;28;86347;-55
2024/01/19 02:16:38;;;;;;;;;;;8.30;91.30;;;;;;5006823;28;88409;-52
2024/01/19 02:19:03;;;;;;;;;;;8.30;91.30;;;;;;5007046;28;86902;-54
2024/01/19 02:21:29;;;;;;;;;;;8.30;91.30;;;;;;5004592;28;88068;-53
2024/01/19 02:23:58;;;;;;;;;;;8.30;91.30;;;;;;5006612;28;87417;-54
2024/01/19 02:26:23;;;;;;;;;;;8.30;91.30;;;;;;5007067;28;86993;-51
2024/01/19 02:28:49;;;;;;;;;;;8.30;91.30;;;;;;5008933;28;86984;-52
2024/01/19 02:31:15;;;;;;;;;;;8.30;91.30;;;;;;5007181;28;87031;-55
2024/01/19 02:33:41;;;;;;;;;;;8.30;91.30;;;;;;5007032;28;87017;-54
2024/01/19 02:36:06;;;;;;;;;;;8.30;91.30;;;;;;5005748;28;87476;-55
2024/01/19 02:38:32;;;;;;;;;;;8.30;91.20;;;;;;5007480;28;86167;-54
2024/01/19 02:40:57;;;;;;;;;;;8.30;91.20;;;;;;5007231;28;87022;-53
2024/01/19 02:43:23;;;;;;;;;;;8.30;91.20;;;;;;5006675;28;87286;-51
2024/01/19 02:45:48;;;;;;;;;;;8.30;91.20;;;;;;5006401;28;87993;-51
2024/01/19 02:48:14;;;;;;;;;;;8.30;91.20;;;;;;5006910;28;87783;-55
2024/01/19 02:50:39;;;;;;;;;;;8.30;91.20;;;;;;5008855;28;87424;-54
2024/01/19 02:53:05;;;;;;;;;;;8.30;91.20;;;;;;5006426;28;86849;-54
2024/01/19 02:55:30;;;;;;;;;;;8.30;91.20;;;;;;5005975;28;87540;-50
2024/01/19 02:57:56;;;;;;;;;;;8.30;91.20;;;;;;5006742;28;87022;-53
2024/01/19 03:00:21;;;;;;;;;;;8.30;91.20;;;;;;5006583;28;87013;-53
2024/01/19 03:02:47;;;;;;;;;;;8.30;91.20;;;;;;4999125;28;86636;-53
2024/01/19 03:05:13;;;;;;;;;;;8.30;91.20;;;;;;5005830;28;87079;-51
2024/01/19 03:07:39;;;;;;;;;;;8.30;91.20;;;;;;5006433;28;87944;-53
2024/01/19 03:10:04;;;;;;;;;;;8.20;91.20;;;;;;5005236;28;88502;-53
2024/01/19 03:12:30;;;;;;;;;;;8.30;91.20;;;;;;5009447;28;86991;-51
2024/01/19 03:14:55;;;;;;;;;;;8.30;91.20;;;;;;5005516;28;87390;-53
2024/01/19 03:17:21;;;;;;;;;;;8.30;91.20;;;;;;5005886;28;87453;-53
2024/01/19 03:19:46;;;;;;;;;;;8.30;91.20;;;;;;5005864;28;86941;-51
2024/01/19 03:22:12;;;;;;;;;;;8.20;91.10;;;;;;5001157;28;90049;-53
2024/01/19 03:24:38;;;;;;;;;;;8.20;91.10;;;;;;5006347;28;86999;-54
2024/01/19 03:27:03;;;;;;;;;;;8.30;91.10;;;;;;5006356;28;87856;-54
2024/01/19 03:29:29;;;;;;;;;;;8.20;91.10;;;;;;5005452;28;87377;-54
2024/01/19 03:31:54;;;;;;;;;;;8.20;91.10;;;;;;5009238;28;86952;-51
2024/01/19 03:34:20;;;;;;;;;;;8.30;91.10;;;;;;5004648;28;87848;-54
2024/01/19 03:36:45;;;;;;;;;;;8.30;91.10;;;;;;5002239;28;87034;-49
2024/01/19 03:39:12;;;;;;;;;;;8.20;91.10;;;;;;5005657;28;86964;-53
2024/01/19 03:41:38;;;;;;;;;;;8.20;91.10;;;;;;5002064;28;88583;-53
2024/01/19 03:44:03;;;;;;;;;;;8.20;91.00;;;;;;5004129;28;87068;-51
2024/01/19 03:46:29;;;;;;;;;;;8.20;91.00;;;;;;5006650;28;86999;-53
2024/01/19 03:48:54;;;;;;;;;;;8.20;91.30;;;;;;5009046;28;86883;-53
2024/01/19 03:51:20;;;;;;;;;;;8.20;91.00;;;;;;5007873;28;86319;-54
2024/01/19 03:53:45;;;;;;;;;;;8.20;91.00;;;;;;5011461;28;86954;-53
2024/01/19 03:56:11;;;;;;;;;;;8.20;91.00;;;;;;5009609;28;87080;-52
2024/01/19 03:58:37;;;;;;;;;;;8.20;91.00;;;;;;5008850;28;87853;-51
2024/01/19 04:01:04;;;;;;;;;;;8.20;91.00;;;;;;5008886;28;88446;-52
2024/01/19 04:03:30;;;;;;;;;;;8.20;91.00;;;;;;5008878;28;87608;-53
2024/01/19 04:05:56;;;;;;;;;;;8.20;91.00;;;;;;5009016;28;87984;-52
2024/01/19 04:08:21;;;;;;;;;;;8.20;91.00;;;;;;5006900;28;86977;-51
2024/01/19 04:10:47;;;;;;;;;;;8.20;91.00;;;;;;5009084;28;86968;-54
2024/01/19 04:13:13;;;;;;;;;;;8.20;91.00;;;;;;5009327;28;86950;-50
2024/01/19 04:15:38;;;;;;;;;;;8.20;91.00;;;;;;5012006;28;87668;-54
2024/01/19 04:18:04;;;;;;;;;;;8.20;91.00;;;;;;5009114;28;86925;-56
2024/01/19 04:20:30;;;;;;;;;;;8.20;90.90;;;;;;5008851;28;87403;-54
2024/01/19 04:22:55;;;;;;;;;;;8.20;91.00;;;;;;5007905;28;87922;-54
2024/01/19 04:25:21;;;;;;;;;;;8.20;91.00;;;;;;5009157;28;87658;-53
2024/01/19 04:27:46;;;;;;;;;;;8.20;91.00;;;;;;5004689;28;87565;-51
2024/01/19 04:30:12;;;;;;;;;;;8.20;91.00;;;;;;5008653;28;86973;-55
2024/01/19 04:32:37;;;;;;;;;;;8.20;91.00;;;;;;5008821;28;86834;-52
2024/01/19 04:35:04;;;;;;;;;;;8.20;90.90;;;;;;5008450;28;87453;-53
2024/01/19 04:37:30;;;;;;;;;;;8.20;90.90;;;;;;5008326;28;86954;-53
2024/01/19 04:39:55;;;;;;;;;;;8.20;91.00;;;;;;5008998;28;86147;-53
2024/01/19 04:42:21;;;;;;;;;;;8.20;91.00;;;;;;5008614;28;87621;-53
2024/01/19 04:44:47;;;;;;;;;;;8.20;91.00;;;;;;5008447;28;87991;-54
2024/01/19 04:47:12;;;;;;;;;;;8.20;91.00;;;;;;5007069;28;88338;-53
2024/01/19 04:49:38;;;;;;;;;;;8.20;90.90;;;;;;5008251;28;87996;-52
2024/01/19 04:52:03;;;;;;;;;;;8.20;90.90;;;;;;5006405;28;87272;-55
2024/01/19 04:54:29;;;;;;;;;;;8.20;90.90;;;;;;5008344;28;87567;-54
2024/01/19 04:56:54;;;;;;;;;;;8.20;90.90;;;;;;5008218;28;87045;-53
2024/01/19 04:59:20;;;;;;;;;;;8.20;90.90;;;;;;5010416;28;87666;-52
2024/01/19 05:01:45;;;;;;;;;;;8.20;90.90;;;;;;5008605;28;87023;-52
2024/01/19 05:04:11;;;;;;;;;;;8.20;90.90;;;;;;5008668;28;87886;-54
2024/01/19 05:06:36;;;;;;;;;;;8.20;90.90;;;;;;5004205;28;87710;-53
2024/01/19 05:09:02;;;;;;;;;;;8.20;90.90;;;;;;5007111;28;87443;-52
2024/01/19 05:11:28;;;;;;;;;;;8.20;90.90;;;;;;5007624;28;88377;-52
2024/01/19 05:13:53;;;;;;;;;;;8.20;90.90;;;;;;5007443;28;87496;-53
2024/01/19 05:16:19;;;;;;;;;;;8.20;90.90;;;;;;5004257;28;87138;-50
2024/01/19 05:18:44;;;;;;;;;;;8.10;90.90;;;;;;5007158;28;86973;-54
2024/01/19 05:21:10;;;;;;;;;;;8.20;90.90;;;;;;5009940;28;88586;-51
2024/01/19 05:23:35;;;;;;;;;;;8.20;90.90;;;;;;5005683;28;87001;-53
2024/01/19 05:26:01;;;;;;;;;;;8.20;90.90;;;;;;5007557;28;87359;-52
2024/01/19 05:28:27;;;;;;;;;;;8.20;90.90;;;;;;5008430;28;86368;-52
2024/01/19 05:30:53;;;;;;;;;;;8.20;90.90;;;;;;5008129;28;86906;-54
2024/01/19 05:33:18;;;;;;;;;;;8.20;90.90;;;;;;5007646;28;87259;-55
2024/01/19 05:35:44;;;;;;;;;;;8.20;90.90;;;;;;5007321;28;87969;-53
2024/01/19 05:38:09;;;;;;;;;;;8.10;90.80;;;;;;5004311;28;88736;-51
2024/01/19 05:40:35;;;;;;;;;;;8.20;90.80;;;;;;5010476;28;87551;-53
2024/01/19 05:43:00;;;;;;;;;;;8.20;90.90;;;;;;5007631;28;86999;-53
2024/01/19 05:45:26;;;;;;;;;;;8.10;90.80;;;;;;5007274;28;87945;-53
2024/01/19 05:47:51;;;;;;;;;;;8.20;90.80;;;;;;5007491;28;87023;-53
2024/01/19 05:50:17;;;;;;;;;;;8.20;90.90;;;;;;5007177;28;86941;-52
2024/01/19 05:52:44;;;;;;;;;;;8.10;90.80;;;;;;5006849;28;86650;-52
2024/01/19 05:55:10;;;;;;;;;;;8.10;90.80;;;;;;5006818;28;87069;-54
2024/01/19 05:57:35;;;;;;;;;;;8.10;90.80;;;;;;5007671;28;86959;-53
2024/01/19 06:00:01;;;;;;;;;;;8.10;90.80;;;;;;5005496;28;88440;-51
2024/01/19 06:02:26;;;;;;;;;;;8.20;90.90;;;;;;5010464;28;86872;-55
2024/01/19 06:04:52;;;;;;;;;;;8.10;91.10;;;;;;5006729;28;87460;-51
2024/01/19 06:07:18;;;;;;;;;;;8.20;90.80;;;;;;5004460;28;87816;-51
2024/01/19 06:09:43;;;;;;;;;;;8.20;90.80;;;;;;5002022;28;87083;-53
2024/01/19 06:12:09;;;;;;;;;;;8.10;90.80;;;;;;5006766;28;88602;-53
2024/01/19 06:14:35;;;;;;;;;;;8.10;90.80;;;;;;5007550;28;88341;-55
2024/01/19 06:17:03;;;;;;;;;;;8.10;90.80;;;;;;5007488;28;86599;-50
2024/01/19 06:19:28;;;;;;;;;;;8.20;90.80;;;;;;5005763;28;88464;-53
2024/01/19 06:21:54;;;;;;;;;;;8.10;90.80;;;;;;5006501;28;86970;-50
2024/01/19 06:24:19;;;;;;;;;;;8.10;90.80;;;;;;5007428;28;87851;-54
2024/01/19 06:26:48;;;;;;;;;;;8.20;90.80;;;;;;5006154;28;86921;-53
2024/01/19 06:29:14;;;;;;;;;;;8.20;90.80;;;;;;5004545;28;87850;-50
2024/01/19 06:31:46;;;;;;;;;;;8.10;90.80;;;;;;5000828;28;90122;-51
2024/01/19 06:34:12;;;;;;;;;;;8.20;90.80;;;;;;5006817;28;86839;-55
2024/01/19 06:36:37;;;;;;;;;;;8.10;90.70;;;;;;5006709;28;87294;-50
2024/01/19 06:39:04;;;;;;;;;;;8.10;90.70;;;;;;5003963;28;87411;-54
2024/01/19 06:41:30;;;;;;;;;;;8.10;90.70;;;;;;5007254;28;86200;-52
2024/01/19 06:43:56;;;;;;;;;;;8.10;90.70;;;;;;5002936;28;86984;-52
2024/01/19 06:46:22;;;;;;;;;;;8.20;90.80;;;;;;5009340;28;87227;-54
2024/01/19 06:48:47;;;;;;;;;;;8.20;90.80;;;;;;5005919;28;87892;-53
2024/01/19 06:51:16;;;;;;;;;;;8.10;90.70;;;;;;5006094;28;87406;-51
2024/01/19 06:53:42;;;;;;;;;;;8.20;90.80;;;;;;5005750;28;86938;-53
2024/01/19 06:56:07;;;;;;;;;;;8.10;90.70;;;;;;5004663;28;86905;-51
2024/01/19 06:58:33;;;;;;;;;;;8.20;90.70;;;;;;5002608;28;86942;-54
2024/01/19 07:00:58;;;;;;;;;;;8.20;90.70;;;;;;5006594;28;87062;-51
2024/01/19 07:03:24;;;;;;;;;;;8.10;90.70;;;;;;5006500;28;86991;-53
2024/01/19 07:05:49;;;;;;;;;;;8.20;90.70;;;;;;5006823;28;86174;-53
2024/01/19 07:08:15;;;;;;;;;;;8.20;90.70;;;;;;5009243;28;86945;-51
2024/01/19 07:10:41;;;;;;;;;;;8.20;90.70;;;;;;5004127;28;88729;-52
2024/01/19 07:13:06;;;;;;;;;;;8.20;90.70;;;;;;5005935;28;87967;-52
2024/01/19 07:15:32;;;;;;;;;;;8.20;90.70;;;;;;5006347;28;88724;-53
2024/01/19 07:17:57;;;;;;;;;;;8.20;90.70;;;;;;5006143;28;87524;-52
2024/01/19 07:20:23;;;;;;;;;;;8.20;90.70;;;;;;5006487;28;86997;-51
2024/01/19 07:22:53;;;;;;;;;;;8.20;90.60;;;;;;5009361;28;87236;-53
2024/01/19 07:25:19;;;;;;;;;;;8.10;90.60;;;;;;5006808;28;88460;-50
2024/01/19 07:27:44;;;;;;;;;;;8.20;90.60;;;;;;5009435;28;87035;-54
2024/01/19 07:30:10;;;;;;;;;;;8.20;90.60;;;;;;5012381;28;86715;-53
2024/01/19 07:32:36;;;;;;;;;;;8.20;90.60;;;;;;5009793;28;87056;-53
2024/01/19 07:35:01;;;;;;;;;;;8.20;90.50;;;;;;5009655;28;87787;-53
2024/01/19 07:37:27;;;;;;;;;;;8.20;90.60;;;;;;5008885;28;88337;-51
2024/01/19 07:39:52;;;;;;;;;;;8.20;90.60;;;;;;5008004;28;87333;-53
2024/01/19 07:42:18;;;;;;;;;;;8.20;90.60;;;;;;5009815;28;86930;-53
2024/01/19 07:44:43;;;;;;;;;;;8.20;90.60;;;;;;5009429;28;87518;-51
2024/01/19 07:47:09;;;;;;;;;;;8.20;90.50;;;;;;5009189;28;87049;-53
2024/01/19 07:49:34;;;;;;;;;;;8.20;90.60;;;;;;5012418;28;87140;-52
2024/01/19 07:52:00;;;;;;;;;;;8.20;90.60;;;;;;5009672;28;86931;-53
2024/01/19 07:54:25;;;;;;;;;;;8.20;90.60;;;;;;5009478;28;86824;-53
2024/01/19 07:56:51;;;;;;;;;;;8.20;90.70;;;;;;5009353;28;87380;-54
2024/01/19 07:59:16;;;;;;;;;;;8.20;90.70;;;;;;5009232;28;88722;-55
2024/01/19 08:01:43;;;;;;;;;;;8.20;90.70;;;;;;5008963;28;87732;-52
2024/01/19 08:04:08;;;;;;;;;;;8.20;91.00;;;;;;5008846;28;88572;-53
2024/01/19 08:06:34;;;;;;;;;;;8.30;90.70;;;;;;5009376;28;87429;-53
2024/01/19 08:08:59;;;;;;;;;;;8.30;90.60;;;;;;5009016;28;87339;-50
2024/01/19 08:11:25;;;;;;;;;;;8.30;90.60;;;;;;5009509;28;87494;-54
2024/01/19 08:13:51;;;;;;;;;;;8.30;90.50;;;;;;5009208;28;86985;-52
2024/01/19 08:16:17;;;;;;;;;;;8.30;90.60;;;;;;5008883;28;87723;-51
2024/01/19 08:18:42;;;;;;;;;;;8.30;90.60;;;;;;5009611;28;86354;-52
2024/01/19 08:21:08;;;;;;;;;;;8.30;90.70;;;;;;5009126;28;86929;-51
2024/01/19 08:23:34;;;;;;;;;;;8.30;90.60;;;;;;5008618;28;87403;-50
2024/01/19 08:25:59;;;;;;;;;;;8.30;90.70;;;;;;5007895;28;87937;-53
2024/01/19 08:28:25;;;;;;;;;;;8.30;90.70;;;;;;5008989;28;87026;-49
2024/01/19 08:30:50;;;;;;;;;;;8.30;90.70;;;;;;5005971;28;87563;-53
2024/01/19 08:33:16;;;;;;;;;;;8.30;91.10;;;;;;5010979;28;87130;-52
2024/01/19 08:35:42;;;;;;;;;;;8.30;90.90;;;;;;5008626;28;87375;-51
2024/01/19 08:38:07;;;;;;;;;;;8.30;90.90;;;;;;5008859;28;87057;-50
2024/01/19 08:40:33;;;;;;;;;;;8.30;91.00;;;;;;5008173;28;86857;-49
2024/01/19 08:43:00;;;;;;;;;;;8.30;91.00;;;;;;5008827;28;86907;-50
2024/01/19 08:45:28;;;;;;;;;;;8.30;91.10;;;;;;5008392;28;87279;-50
2024/01/19 08:47:57;;;;;;;;;;;8.30;91.10;;;;;;5008501;28;87930;-50
2024/01/19 08:50:23;;;;;;;;;;;8.30;91.20;;;;;;5007495;28;89446;-50
2024/01/19 08:52:48;;;;;;;;;;;8.30;91.20;;;;;;5008733;28;87406;-50
2024/01/19 08:55:14;;;;;;;;;;;8.30;91.30;;;;;;5007834;28;87038;-52
2024/01/19 08:57:40;;;;;;;;;;;8.40;91.30;;;;;;5006799;28;86982;-50
2024/01/19 09:00:07;;;;;;;;;;;8.40;91.30;;;;;;5004677;28;87917;-52
2024/01/19 09:02:33;;;;;;;;;;;8.30;91.30;;;;;;5008014;28;87650;-49
2024/01/19 09:04:58;;;;;;;;;;;8.40;91.40;;;;;;5008750;28;87010;-50
2024/01/19 09:07:24;;;;;;;;;;;8.40;91.40;;;;;;5008010;28;86821;-50
2024/01/19 09:09:50;;;;;;;;;;;8.40;91.50;;;;;;5007026;28;88555;-50
2024/01/19 09:12:15;;;;;;;;;;;8.40;91.50;;;;;;5004701;28;87198;-53
2024/01/19 09:14:41;;;;;;;;;;;8.40;91.50;;;;;;5006558;28;87980;-55
2024/01/19 09:17:06;;;;;;;;;;;8.40;91.50;;;;;;5008779;28;87400;-50
2024/01/19 09:19:32;;;;;;;;;;;8.40;91.50;;;;;;5007832;28;86987;-53
2024/01/19 09:21:57;;;;;;;;;;;8.40;91.50;;;;;;5006660;28;88637;-50
2024/01/19 09:24:24;;;;;;;;;;;8.40;91.60;;;;;;5007525;28;87048;-50
2024/01/19 09:26:49;;;;;;;;;;;8.40;91.60;;;;;;5005014;28;88065;-50
2024/01/19 09:29:16;;;;;;;;;;;8.40;91.60;;;;;;5007238;28;88476;-53
2024/01/19 09:31:42;;;;;;;;;;;8.40;91.60;;;;;;5007839;28;86739;-51
2024/01/19 09:34:08;;;;;;;;;;;8.40;91.60;;;;;;5005201;28;87163;-51
2024/01/19 09:36:33;;;;;;;;;;;8.40;91.60;;;;;;5004548;28;87526;-50
2024/01/19 09:38:59;;;;;;;;;;;8.40;91.60;;;;;;5010174;28;87965;-52
2024/01/19 09:41:37;;;;;;;;;;;8.40;91.70;;;;;;5005689;28;87240;-49
2024/01/19 09:44:06;;;;;;;;;;;8.40;91.70;;;;;;5003908;28;87008;-51
2024/01/19 09:46:35;;;;;;;;;;;8.40;91.70;;;;;;5007757;28;87746;-51
2024/01/19 09:49:21;;;;;;;;;;;8.40;91.70;;;;;;5003979;28;87431;-53
2024/01/19 09:51:56;;;;;;;;;;;8.40;91.70;;;;;;4985645;28;87185;-51
2024/01/19 09:54:34;;;;;;;;;;;8.50;91.70;;;;;;5007424;28;86928;-50
2024/01/19 09:57:01;;;;;;;;;;;8.50;91.70;;;;;;5006938;28;88024;-53
2024/01/19 09:59:33;;;;;;;;;;;8.50;91.70;;;;;;5007869;28;87040;-52
2024/01/19 10:01:59;;;;;;;;;;;8.50;91.70;;;;;;5006580;28;87543;-51
2024/01/19 10:04:25;;;;;;;;;;;8.50;91.70;;;;;;5006943;28;87919;-53
2024/01/19 10:06:51;;;;;;;;;;;8.50;92.00;;;;;;5007269;28;88743;-54
2024/01/19 10:09:20;;;;;;;;;;;8.50;91.90;;;;;;5006382;28;87406;-49
2024/01/19 10:11:46;;;;;;;;;;;8.60;91.90;;;;;;5006370;28;87075;-50
2024/01/19 10:14:13;;;;;;;;;;;8.60;92.00;;;;;;5007575;28;87297;-51
2024/01/19 10:16:39;;;;;;;;;;;8.50;92.20;;;;;;5006889;28;87430;-50
2024/01/19 10:19:04;;;;;;;;;;;8.40;92.40;;;;;;5007337;28;87556;-50
2024/01/19 10:21:30;;;;;;;;;;;8.50;92.30;;;;;;5010136;28;87979;-50
2024/01/19 10:24:22;;;;;;;;;;;8.60;92.20;;;;;;5006999;28;86978;-54
2024/01/19 10:26:55;;;;;;;;;;;8.70;92.20;;;;;;5004418;28;86883;-50
2024/01/19 10:29:21;;;;;;;;;;;8.70;92.00;;;;;;5005156;28;88222;-51
2024/01/19 10:31:49;;;;;;;;;;;8.70;92.00;;;;;;5006397;28;86953;-49
2024/01/19 10:34:17;;;;;;;;;;;8.70;91.80;;;;;;5003243;28;88013;-54
2024/01/19 10:36:43;;;;;;;;;;;8.70;91.70;;;;;;5006571;28;88540;-51
2024/01/19 10:39:16;;;;;;;;;;;8.80;91.70;;;;;;5005441;28;87005;-53
2024/01/19 10:41:41;;;;;;;;;;;8.80;91.60;;;;;;5005513;28;86955;-53
2024/01/19 10:44:11;;;;;;;;;;;8.80;91.50;;;;;;5008410;28;86855;-53
2024/01/19 10:46:36;;;;;;;;;;;8.80;91.60;;;;;;5003868;28;87986;-50
2024/01/19 10:49:05;;;;;;;;;;;8.80;91.60;;;;;;5005195;28;88441;-51
2024/01/19 10:51:34;;;;;;;;;;;8.80;91.60;;;;;;5006365;28;87184;-50
2024/01/19 10:54:01;;;;;;;;;;;8.80;91.70;;;;;;5005616;28;87898;-50
2024/01/19 10:56:27;;;;;;;;;;;8.80;91.60;;;;;;5005836;28;88638;-54
2024/01/19 10:58:52;;;;;;;;;;;8.80;91.60;;;;;;5005531;28;87055;-50
2024/01/19 11:01:18;;;;;;;;;;;8.80;91.60;;;;;;5006221;28;86965;-52
2024/01/19 11:03:44;;;;;;;;;;;8.80;91.70;;;;;;5006019;28;87735;-50
2024/01/19 11:06:10;;;;;;;;;;;8.80;91.70;;;;;;5009491;28;87062;-51
2024/01/19 11:08:36;;;;;;;;;;;8.80;91.70;;;;;;5005830;28;87545;-53
2024/01/19 11:11:03;;;;;;;;;;;8.90;91.80;;;;;;5007136;28;86119;-52
2024/01/19 11:13:29;;;;;;;;;;;8.90;91.80;;;;;;5005510;28;87029;-51
2024/01/19 11:15:57;;;;;;;;;;;8.90;91.70;;;;;;5005491;28;88569;-49
2024/01/19 11:18:23;;;;;;;;;;;8.90;91.80;;;;;;5005718;28;88012;-53
2024/01/19 11:20:49;;;;;;;;;;;8.90;91.80;;;;;;5002911;28;87707;-50
2024/01/19 11:23:16;;;;;;;;;;;8.90;91.80;;;;;;5003306;28;87455;-52
2024/01/19 11:25:42;;;;;;;;;;;8.90;91.90;;;;;;5005531;28;87094;-51
2024/01/19 11:28:16;;;;;;;;;;;8.90;91.80;;;;;;5005466;28;87814;-50
2024/01/19 11:30:47;;;;;;;;;;;8.90;91.90;;;;;;5005065;28;87072;-50
2024/01/19 11:33:19;;;;;;;;;;;8.90;91.90;;;;;;5001561;28;87825;-52
2024/01/19 11:35:51;;;;;;;;;;;8.90;91.80;;;;;;5004559;28;87863;-50
2024/01/19 11:38:35;;;;;;;;;;;9.00;91.80;;;;;;5005433;28;87001;-51
2024/01/19 11:41:00;;;;;;;;;;;9.00;91.90;;;;;;5003334;28;86896;-51
2024/01/19 11:43:39;;;;;;;;;;;9.00;91.90;;;;;;5004598;28;88384;-53
2024/01/19 11:46:05;;;;;;;;;;;8.90;91.90;;;;;;5002817;28;87064;-53
2024/01/19 11:48:38;;;;;;;;;;;9.00;91.90;;;;;;5007231;28;89640;-52
2024/01/19 11:51:03;;;;;;;;;;;9.00;92.00;;;;;;5003300;28;87000;-51
2024/01/19 11:53:49;;;;;;;;;;;9.00;92.00;;;;;;5005590;28;87035;-52
2024/01/19 11:56:21;;;;;;;;;;;9.00;92.00;;;;;;5003460;28;87641;-52
2024/01/19 11:58:47;;;;;;;;;;;9.00;92.00;;;;;;5001954;28;86864;-51
2024/01/19 12:01:13;;;;;;;;;;;9.00;92.00;;;;;;5005637;28;87113;-49
2024/01/19 12:03:39;;;;;;;;;;;9.00;92.10;;;;;;5004736;28;87441;-52
2024/01/19 12:06:05;;;;;;;;;;;9.00;92.10;;;;;;5005683;28;87088;-50
2024/01/19 12:08:31;;;;;;;;;;;9.00;92.10;;;;;;5006841;28;88024;-51
2024/01/19 12:11:01;;;;;;;;;;;9.00;92.40;;;;;;5011258;28;87448;-51
2024/01/19 12:13:26;;;;;;;;;;;9.00;92.10;;;;;;5008065;28;87482;-51
2024/01/19 12:15:52;;;;;;;;;;;9.00;92.20;;;;;;5008661;28;88645;-50
2024/01/19 12:18:17;;;;;;;;;;;9.00;92.20;;;;;;5009117;28;86996;-51
2024/01/19 12:20:45;;;;;;;;;;;9.00;92.20;;;;;;5009110;28;86951;-53
2024/01/19 12:23:13;;;;;;;;;;;9.00;92.30;;;;;;5006436;28;88289;-50
2024/01/19 12:25:38;;;;;;;;;;;9.00;92.30;;;;;;5009026;28;86369;-51
2024/01/19 12:28:05;;;;;;;;;;;9.00;92.30;;;;;;5008231;28;87039;-54
2024/01/19 12:30:34;;;;;;;;;;;9.00;92.30;;;;;;5007997;28;87414;-53
2024/01/19 12:33:13;;;;;;;;;;;9.00;92.30;;;;;;5007439;28;87941;-52
2024/01/19 12:35:39;;;;;;;;;;;9.00;92.30;;;;;;5007888;28;88484;-51
2024/01/19 12:38:05;;;;;;;;;;;9.00;92.30;;;;;;5008655;28;87078;-51
2024/01/19 12:40:33;;;;;;;;;;;9.00;92.40;;;;;;5007005;28;87366;-53
2024/01/19 12:43:02;;;;;;;;;;;9.00;92.30;;;;;;5008370;28;87536;-53
2024/01/19 12:45:28;;;;;;;;;;;9.10;92.30;;;;;;5005945;28;87179;-50
2024/01/19 12:47:54;;;;;;;;;;;9.10;92.20;;;;;;5008564;28;88195;-51
2024/01/19 12:50:20;;;;;;;;;;;9.10;92.30;;;;;;5008828;28;86552;-50
2024/01/19 12:52:45;;;;;;;;;;;9.10;92.30;;;;;;5008257;28;87146;-53
2024/01/19 12:55:12;;;;;;;;;;;9.10;92.30;;;;;;5011032;28;87791;-53
2024/01/19 12:57:37;;;;;;;;;;;9.10;92.30;;;;;;5007655;28;87990;-49
2024/01/19 13:00:06;;;;;;;;;;;9.10;92.30;;;;;;5004253;28;88921;-53
2024/01/19 13:02:32;;;;;;;;;;;9.10;92.30;;;;;;5008275;28;87473;-54
2024/01/19 13:04:57;;;;;;;;;;;9.10;92.50;;;;;;5008135;28;87141;-54
2024/01/19 13:07:23;;;;;;;;;;;9.20;92.50;;;;;;5006910;28;87036;-53
2024/01/19 13:10:01;;;;;;;;;;;9.10;92.40;;;;;;5006283;28;87404;-53
2024/01/19 13:12:26;;;;;;;;;;;9.10;92.50;;;;;;5005404;28;87095;-51
2024/01/19 13:14:52;;;;;;;;;;;9.20;92.50;;;;;;5010706;28;86834;-54
2024/01/19 13:17:24;;;;;;;;;;;9.10;92.40;;;;;;5010447;28;89121;-51
2024/01/19 13:19:51;;;;;;;;;;;9.20;92.50;;;;;;5007878;28;87766;-53
2024/01/19 13:22:16;;;;;;;;;;;9.20;92.40;;;;;;5007255;28;88707;-51
2024/01/19 13:24:43;;;;;;;;;;;9.20;92.40;;;;;;5008204;28;87038;-53
2024/01/19 13:27:08;;;;;;;;;;;9.20;92.50;;;;;;5007978;28;87010;-50
2024/01/19 13:29:34;;;;;;;;;;;9.20;92.50;;;;;;5006847;28;87547;-52
2024/01/19 13:31:59;;;;;;;;;;;9.20;92.40;;;;;;5007764;28;87333;-55
2024/01/19 13:34:27;;;;;;;;;;;9.20;92.50;;;;;;5008092;28;87309;-50
2024/01/19 13:36:53;;;;;;;;;;;9.30;92.60;;;;;;5007109;28;87316;-54
2024/01/19 13:39:18;;;;;;;;;;;9.20;92.60;;;;;;5011080;28;86224;-52
2024/01/19 13:41:44;;;;;;;;;;;9.20;92.50;;;;;;5007459;28;88590;-53
2024/01/19 13:44:10;;;;;;;;;;;9.20;92.60;;;;;;5007797;28;87045;-53
2024/01/19 13:46:35;;;;;;;;;;;9.20;92.60;;;;;;5006620;28;88370;-53
2024/01/19 13:49:01;;;;;;;;;;;9.20;92.50;;;;;;5007544;28;87379;-54
2024/01/19 13:51:26;;;;;;;;;;;9.30;92.60;;;;;;5007545;28;87018;-51
2024/01/19 13:53:52;;;;;;;;;;;9.30;92.60;;;;;;5004139;28;87060;-51
2024/01/19 13:56:17;;;;;;;;;;;9.30;92.60;;;;;;5007556;28;87479;-50
2024/01/19 13:58:43;;;;;;;;;;;9.30;92.60;;;;;;5010386;28;86959;-52
2024/01/19 14:01:10;;;;;;;;;;;9.30;92.70;;;;;;5006656;28;87484;-49
2024/01/19 14:03:35;;;;;;;;;;;9.30;92.60;;;;;;5007039;28;86334;-50
2024/01/19 14:06:02;;;;;;;;;;;9.30;92.70;;;;;;5007341;28;87002;-50
2024/01/19 14:08:28;;;;;;;;;;;9.30;92.60;;;;;;5006407;28;86957;-52
2024/01/19 14:10:54;;;;;;;;;;;9.30;92.60;;;;;;5006552;28;89532;-53
2024/01/19 14:13:20;;;;;;;;;;;9.40;92.60;;;;;;5007453;28;88086;-50
2024/01/19 14:15:48;;;;;;;;;;;9.40;92.60;;;;;;5004235;28;87431;-51
2024/01/19 14:18:18;;;;;;;;;;;9.40;92.60;;;;;;5006991;28;86970;-53
2024/01/19 14:20:45;;;;;;;;;;;9.30;92.60;;;;;;5009644;28;87224;-50
2024/01/19 14:23:11;;;;;;;;;;;9.40;92.70;;;;;;5006839;28;86981;-52
2024/01/19 14:25:36;;;;;;;;;;;9.40;92.70;;;;;;5007327;28;87029;-53